Terminal Aerodrome Forecast
Issued by NWS

Home | Current Version | Previous Version | Text Only | Print | Product List | Glossary On
Versions: 1 2 3 4 5 6 7 8 9 10 11 12 13 14 15 16 17
000
FTUS46 KMTR 291100 AAA
TAFSTS
TAF AMD
KSTS 291135Z 2912/3012 00000KT 3SM BR SCT002
      TEMPO 2912/2916 1/2SM FG VV002
     FM291600 33003KT 6SM BR FEW200
     FM292300 21005KT P6SM SKC
     FM300500 VRB03KT P6SM SKC=

USA.gov is the U.S. government's official web portal to all federal, state and local government web resources and services.